createdAt,value
2018-12-13T00:01:18.482Z,26.23
2018-12-13T00:03:49.511Z,27.10
2018-12-13T00:06:20.505Z,26.83
2018-12-13T00:08:49.511Z,29.40
2018-12-13T00:11:18.494Z,28.63
2018-12-13T00:13:47.516Z,26.13
2018-12-13T00:16:16.494Z,24.87
2018-12-13T00:18:45.509Z,24.20
2018-12-13T00:21:14.519Z,26.73
2018-12-13T00:23:43.626Z,30.80
2018-12-13T00:26:12.643Z,28.97
2018-12-13T00:28:41.670Z,30.23
2018-12-13T00:31:10.733Z,30.57
2018-12-13T00:33:39.840Z,28.50
2018-12-13T00:36:08.954Z,29.60
2018-12-13T00:38:37.983Z,29.97
2018-12-13T00:41:06.974Z,28.87
2018-12-13T00:43:35.976Z,42.67
2018-12-13T00:46:05.006Z,27.17
2018-12-13T00:48:34.015Z,28.73
2018-12-13T00:51:03.030Z,27.63
2018-12-13T00:53:32.085Z,29.03
2018-12-13T00:56:01.111Z,30.00
2018-12-13T00:58:30.135Z,31.63
2018-12-13T01:01:01.140Z,28.27
2018-12-13T01:03:32.230Z,28.30
2018-12-13T01:06:01.238Z,35.17
2018-12-13T01:08:30.302Z,30.43
2018-12-13T01:10:59.311Z,29.43
2018-12-13T01:13:28.295Z,31.37
2018-12-13T01:15:57.417Z,30.37
2018-12-13T01:18:26.451Z,32.73
2018-12-13T01:20:55.451Z,30.53
2018-12-13T01:23:24.459Z,28.80
2018-12-13T01:25:54.475Z,29.40
2018-12-13T01:28:24.494Z,31.33
2018-12-13T01:30:53.504Z,28.43
2018-12-13T01:33:22.511Z,30.37
2018-12-13T01:35:51.518Z,28.80
2018-12-13T01:38:20.525Z,29.30
2018-12-13T01:40:50.573Z,28.90
2018-12-13T01:43:19.590Z,28.43
2018-12-13T01:45:48.659Z,32.03
2018-12-13T01:48:17.796Z,28.53
2018-12-13T01:50:46.826Z,33.53
2018-12-13T01:53:15.838Z,30.07
2018-12-13T01:55:44.863Z,25.97
2018-12-13T01:58:15.064Z,27.17
2018-12-13T02:00:44.071Z,22.80
2018-12-13T02:03:13.062Z,24.53
2018-12-13T02:05:42.134Z,25.70
2018-12-13T02:08:11.147Z,24.53
2018-12-13T02:10:40.194Z,28.80
2018-12-13T02:13:09.211Z,29.00
2018-12-13T02:15:38.298Z,25.47
2018-12-13T02:18:07.323Z,26.60
2018-12-13T02:23:04.092Z,30.60
2018-12-13T02:25:33.112Z,30.13
2018-12-13T02:28:02.134Z,24.33
2018-12-13T02:30:31.155Z,25.47
2018-12-13T02:33:00.216Z,24.27
2018-12-13T02:35:29.217Z,33.00
2018-12-13T02:37:58.253Z,23.70
2018-12-13T02:40:27.286Z,28.40
2018-12-13T02:42:56.315Z,23.20
2018-12-13T02:45:25.392Z,24.27
2018-12-13T02:47:54.450Z,33.93
2018-12-13T02:50:23.453Z,32.77
2018-12-13T02:52:53.591Z,28.83
2018-12-13T02:55:23.232Z,31.00
2018-12-13T02:57:52.435Z,28.30
2018-12-13T03:00:21.449Z,33.67
2018-12-13T03:02:50.531Z,32.17
2018-12-13T03:05:19.639Z,28.20
2018-12-13T03:07:48.853Z,28.33
2018-12-13T03:10:17.906Z,26.93
2018-12-13T03:12:48.481Z,28.90
2018-12-13T03:15:18.269Z,29.63
2018-12-13T03:17:47.333Z,30.00
2018-12-13T03:20:17.579Z,30.10
2018-12-13T03:22:46.591Z,31.27
2018-12-13T03:25:15.623Z,29.60
2018-12-13T03:27:44.637Z,30.77
2018-12-13T03:30:13.787Z,30.73
2018-12-13T03:32:42.859Z,30.40
2018-12-13T03:35:11.888Z,35.03
2018-12-13T03:37:42.872Z,31.53
2018-12-13T03:40:11.924Z,27.67
2018-12-13T03:42:40.919Z,33.10
2018-12-13T03:45:09.963Z,34.97
2018-12-13T03:47:39.075Z,31.40
2018-12-13T03:50:08.072Z,29.13
2018-12-13T03:52:37.103Z,30.60
2018-12-13T03:55:06.684Z,33.73
2018-12-13T03:57:35.763Z,33.27
2018-12-13T04:00:05.686Z,33.70
2018-12-13T04:02:34.709Z,33.50
2018-12-13T04:05:04.212Z,32.57
2018-12-13T04:07:34.213Z,33.67
2018-12-13T04:10:03.546Z,34.70
2018-12-13T04:12:32.564Z,32.67
2018-12-13T04:15:01.582Z,36.20
2018-12-13T04:17:30.586Z,34.87
2018-12-13T04:20:01.631Z,32.30
2018-12-13T04:22:30.638Z,34.83
2018-12-13T04:24:59.671Z,38.73
2018-12-13T04:27:28.686Z,33.30
2018-12-13T04:29:57.792Z,36.00
2018-12-13T04:32:26.782Z,42.00
2018-12-13T04:34:55.798Z,35.40
2018-12-13T04:37:24.907Z,36.03
2018-12-13T04:39:53.946Z,34.67
2018-12-13T04:42:22.972Z,36.73
2018-12-13T04:44:52.002Z,37.47
2018-12-13T04:47:21.014Z,35.20
2018-12-13T04:49:50.682Z,35.47
2018-12-13T04:52:19.723Z,35.60
2018-12-13T04:54:48.718Z,31.67
2018-12-13T04:57:17.730Z,35.30
2018-12-13T04:59:46.747Z,38.63
2018-12-13T05:02:15.823Z,36.23
2018-12-13T05:04:44.847Z,37.73
2018-12-13T05:07:13.886Z,36.90
2018-12-13T05:09:42.918Z,42.40
2018-12-13T05:12:11.923Z,35.27
2018-12-13T05:14:41.021Z,36.27
2018-12-13T05:17:10.688Z,37.97
2018-12-13T05:19:39.678Z,37.97
2018-12-13T05:22:08.707Z,41.00
2018-12-13T05:24:37.822Z,39.10
2018-12-13T05:27:08.703Z,35.60
2018-12-13T05:29:37.814Z,40.23
2018-12-13T05:32:06.826Z,43.53
2018-12-13T05:34:35.851Z,41.93
2018-12-13T05:37:04.938Z,38.33
2018-12-13T05:39:33.921Z,45.40
2018-12-13T05:42:03.055Z,40.70
2018-12-13T05:44:32.114Z,43.97
2018-12-13T05:47:01.214Z,42.57
2018-12-13T05:49:30.263Z,36.53
2018-12-13T05:51:59.303Z,41.00
2018-12-13T05:54:28.874Z,49.20
2018-12-13T05:56:58.223Z,39.23
2018-12-13T05:59:27.233Z,38.93
2018-12-13T06:01:56.434Z,43.97
2018-12-13T06:04:25.458Z,37.00
2018-12-13T06:06:54.463Z,34.90
2018-12-13T06:09:23.521Z,39.30
2018-12-13T06:11:53.259Z,38.97
2018-12-13T06:14:22.343Z,43.97
2018-12-13T06:16:51.360Z,37.63
2018-12-13T06:19:26.582Z,37.60
2018-12-13T06:21:51.478Z,40.37
2018-12-13T06:24:20.510Z,39.80
2018-12-13T06:26:49.544Z,46.23
2018-12-13T06:29:18.534Z,42.13
2018-12-13T06:31:47.616Z,36.63
2018-12-13T06:34:16.732Z,38.13
2018-12-13T06:36:45.778Z,45.10
2018-12-13T06:39:14.794Z,41.63
2018-12-13T06:41:43.912Z,43.33
2018-12-13T06:44:12.932Z,37.83
2018-12-13T06:46:41.943Z,39.13
2018-12-13T06:49:11.570Z,43.00
2018-12-13T06:51:40.634Z,44.17
2018-12-13T06:54:10.222Z,41.67
2018-12-13T06:56:39.262Z,38.10
2018-12-13T06:59:08.639Z,44.10
2018-12-13T07:01:37.739Z,48.23
2018-12-13T07:04:07.527Z,36.90
2018-12-13T07:06:36.555Z,38.53
2018-12-13T07:09:07.142Z,50.70
2018-12-13T07:11:37.228Z,36.13
2018-12-13T07:14:06.467Z,43.47
2018-12-13T07:16:35.651Z,37.47
2018-12-13T07:19:04.734Z,36.87
2018-12-13T07:21:34.403Z,38.30
2018-12-13T07:24:03.620Z,29.00
2018-12-13T07:26:32.656Z,33.87
2018-12-13T07:29:01.681Z,30.27
2018-12-13T07:31:31.262Z,28.30
2018-12-13T07:34:00.335Z,24.17
2018-12-13T07:36:29.438Z,27.87
2018-12-13T07:38:58.473Z,25.10
2018-12-13T07:41:27.500Z,24.97
2018-12-13T07:43:56.533Z,32.13
2018-12-13T07:46:25.584Z,22.60
2018-12-13T07:48:56.533Z,21.53
2018-12-13T07:51:26.707Z,22.97
2018-12-13T07:53:55.741Z,27.25
2018-12-13T07:56:24.831Z,23.03
2018-12-13T07:58:53.880Z,19.13
2018-12-13T08:01:22.971Z,19.40
2018-12-13T08:03:52.246Z,17.20
2018-12-13T08:06:21.266Z,16.63
2018-12-13T08:08:50.342Z,17.50
2018-12-13T08:11:19.354Z,19.13
2018-12-13T08:13:48.970Z,14.90
2018-12-13T08:16:18.003Z,14.23
2018-12-13T08:18:49.018Z,15.73
2018-12-13T08:21:20.009Z,22.37
2018-12-13T08:23:49.071Z,14.13
2018-12-13T08:26:18.106Z,15.23
2018-12-13T08:28:47.152Z,15.50
2018-12-13T08:31:16.195Z,17.60
2018-12-13T08:33:45.227Z,13.93
2018-12-13T08:36:14.326Z,15.33
2018-12-13T08:38:43.368Z,17.80
2018-12-13T08:41:12.530Z,20.63
2018-12-13T08:43:41.554Z,16.17
2018-12-13T08:46:10.592Z,15.80
2018-12-13T08:48:39.656Z,15.50
2018-12-13T08:51:09.380Z,16.10
2018-12-13T08:53:38.436Z,16.23
2018-12-13T08:56:07.810Z,15.90
2018-12-13T08:58:36.815Z,14.50
2018-12-13T09:01:06.418Z,17.53
2018-12-13T09:03:36.065Z,11.93
2018-12-13T09:06:05.087Z,17.80
2018-12-13T09:08:34.116Z,11.97
2018-12-13T09:11:03.131Z,12.67
2018-12-13T09:13:32.157Z,12.07
2018-12-13T09:16:01.666Z,18.60
2018-12-13T09:18:30.667Z,15.80
2018-12-13T09:20:59.743Z,15.50
2018-12-13T09:23:28.803Z,14.87
2018-12-13T09:25:58.555Z,11.30
2018-12-13T09:28:27.650Z,12.83
2018-12-13T09:30:56.739Z,13.77
2018-12-13T09:33:25.807Z,15.30
2018-12-13T09:35:54.882Z,14.70
2018-12-13T09:38:23.915Z,15.50
2018-12-13T09:40:52.950Z,13.03
2018-12-13T09:43:21.946Z,13.90
2018-12-13T09:45:50.992Z,9.73
2018-12-13T09:48:19.983Z,12.47
2018-12-13T09:50:51.990Z,15.33
2018-12-13T09:53:21.066Z,14.13
2018-12-13T09:55:50.087Z,13.20
2018-12-13T09:58:19.126Z,15.47
2018-12-13T10:00:48.118Z,11.80
2018-12-13T10:03:17.133Z,13.10
2018-12-13T10:05:46.134Z,10.13
2018-12-13T10:08:15.243Z,10.67
2018-12-13T10:10:44.243Z,11.70
2018-12-13T10:13:13.258Z,9.87
2018-12-13T10:15:42.248Z,12.27
2018-12-13T10:18:11.630Z,9.80
2018-12-13T10:20:40.637Z,11.10
2018-12-13T10:23:09.644Z,10.73
2018-12-13T10:25:38.629Z,10.93
2018-12-13T10:28:07.691Z,13.63
2018-12-13T10:30:36.698Z,12.23
2018-12-13T10:33:05.727Z,10.47
2018-12-13T10:35:34.920Z,10.73
2018-12-13T10:38:03.942Z,9.70
2018-12-13T10:40:32.947Z,10.67
2018-12-13T10:43:02.023Z,9.33
2018-12-13T10:45:31.046Z,15.07
2018-12-13T10:48:00.196Z,11.27
2018-12-13T10:50:29.228Z,12.13
2018-12-13T10:52:58.291Z,14.90
2018-12-13T10:55:27.348Z,12.20
2018-12-13T10:57:56.439Z,12.97
2018-12-13T11:00:30.662Z,10.70
2018-12-13T11:03:48.373Z,11.43
2018-12-13T11:06:17.479Z,13.20
2018-12-13T11:08:47.222Z,12.03
2018-12-13T11:11:16.453Z,9.20
2018-12-13T11:13:45.463Z,10.00
2018-12-13T11:16:14.477Z,11.53
2018-12-13T11:18:43.498Z,12.90
2018-12-13T11:21:17.377Z,14.60
2018-12-13T11:23:44.953Z,10.50
2018-12-13T11:26:14.099Z,11.37
2018-12-13T11:29:57.230Z,11.97
2018-12-13T11:32:26.287Z,12.33
2018-12-13T11:34:55.466Z,11.17
2018-12-13T11:37:24.515Z,11.57
2018-12-13T11:39:53.549Z,12.10
2018-12-13T11:42:23.722Z,12.07
2018-12-13T11:44:52.787Z,14.17
2018-12-13T11:47:22.407Z,19.03
2018-12-13T11:49:51.597Z,11.30
2018-12-13T11:52:20.787Z,10.70
2018-12-13T11:54:49.813Z,12.50
2018-12-13T11:57:18.907Z,12.10
2018-12-13T11:59:47.923Z,9.97
2018-12-13T12:02:16.949Z,11.47
2018-12-13T12:04:46.147Z,10.97
2018-12-13T12:07:15.159Z,13.73
2018-12-13T12:09:44.198Z,9.40
2018-12-13T12:12:13.276Z,11.43
2018-12-13T12:14:42.308Z,11.10
2018-12-13T12:17:11.373Z,11.30
2018-12-13T12:19:40.410Z,14.10
2018-12-13T12:22:10.427Z,17.10
2018-12-13T12:24:39.457Z,14.37
2018-12-13T12:27:08.680Z,13.93
2018-12-13T12:29:37.758Z,15.00
2018-12-13T12:32:06.790Z,11.13
2018-12-13T12:34:35.804Z,13.40
2018-12-13T12:37:04.845Z,14.63
2018-12-13T12:39:33.918Z,14.40
2018-12-13T12:42:03.052Z,13.57
2018-12-13T12:44:34.994Z,13.77
2018-12-13T12:47:04.554Z,12.70
2018-12-13T12:49:33.594Z,11.83
2018-12-13T12:52:02.787Z,12.30
2018-12-13T12:54:31.868Z,13.00
2018-12-13T12:57:00.887Z,14.30
2018-12-13T12:59:30.111Z,15.97
2018-12-13T13:01:59.318Z,13.17
2018-12-13T13:04:28.350Z,13.10
2018-12-13T13:06:57.511Z,11.93
2018-12-13T13:09:26.510Z,13.60
2018-12-13T13:11:55.688Z,15.50
2018-12-13T13:14:24.694Z,12.27
2018-12-13T13:16:53.783Z,15.87
2018-12-13T13:19:22.893Z,17.20
2018-12-13T13:21:51.915Z,17.17
2018-12-13T13:24:21.057Z,16.30
2018-12-13T13:26:50.174Z,13.00
2018-12-13T13:29:19.202Z,14.80
2018-12-13T13:31:48.231Z,16.70
2018-12-13T13:34:17.313Z,14.50
2018-12-13T13:36:46.959Z,13.80
2018-12-13T13:39:15.976Z,13.83
2018-12-13T13:41:44.982Z,15.50
2018-12-13T13:44:14.187Z,19.53
2018-12-13T13:46:43.910Z,15.27
2018-12-13T13:49:12.958Z,13.57
2018-12-13T13:51:42.543Z,13.57
2018-12-13T13:54:11.555Z,15.57
2018-12-13T13:56:40.575Z,17.40
2018-12-13T13:59:09.590Z,16.40
2018-12-13T14:01:38.748Z,14.80
2018-12-13T14:04:07.851Z,17.40
2018-12-13T14:06:38.086Z,15.83
2018-12-13T14:09:08.631Z,15.00
2018-12-13T14:11:37.732Z,17.60
2018-12-13T14:14:06.820Z,19.30
2018-12-13T14:16:35.920Z,19.07
2018-12-13T14:19:05.551Z,18.27
2018-12-13T14:21:34.617Z,17.73
2018-12-13T14:24:03.839Z,26.47
2018-12-13T14:26:32.989Z,17.03
2018-12-13T14:29:02.635Z,14.23
2018-12-13T14:31:31.715Z,22.67
2018-12-13T14:34:00.839Z,19.27
2018-12-13T14:36:30.638Z,15.77
2018-12-13T14:38:59.667Z,16.67
2018-12-13T14:41:30.789Z,14.07
2018-12-13T14:44:05.559Z,15.83
2018-12-13T14:46:34.575Z,24.63
2018-12-13T14:49:03.730Z,17.87
2018-12-13T14:51:32.947Z,20.10
2018-12-13T14:54:02.001Z,27.27
2018-12-13T14:56:31.042Z,18.87
2018-12-13T14:59:00.857Z,18.03
2018-12-13T15:01:29.875Z,18.70
2018-12-13T15:03:59.647Z,19.67
2018-12-13T15:06:28.706Z,21.03
2018-12-13T15:08:57.795Z,18.10
2018-12-13T15:11:26.836Z,21.67
2018-12-13T15:13:55.893Z,16.70
2018-12-13T15:16:25.710Z,20.97
2018-12-13T15:18:54.891Z,21.80
2018-12-13T15:21:24.148Z,23.77
2018-12-13T15:23:53.458Z,21.83
2018-12-13T15:26:23.503Z,23.83
2018-12-13T15:28:53.157Z,18.77
2018-12-13T15:31:22.235Z,20.63
2018-12-13T15:33:51.382Z,16.20
2018-12-13T15:36:21.250Z,21.10
2018-12-13T15:38:50.378Z,23.70
2018-12-13T15:41:19.445Z,20.50
2018-12-13T15:43:48.477Z,20.00
2018-12-13T15:46:17.519Z,19.43
2018-12-13T15:48:46.567Z,23.17
2018-12-13T15:51:16.278Z,25.80
2018-12-13T15:53:46.718Z,20.97
2018-12-13T15:56:16.007Z,26.37
2018-12-13T15:58:45.042Z,20.80
2018-12-13T16:01:14.163Z,21.20
2018-12-13T16:03:43.223Z,23.50
2018-12-13T16:06:12.258Z,27.10
2018-12-13T16:08:41.319Z,23.03
2018-12-13T16:11:10.343Z,23.53
2018-12-13T16:13:39.347Z,21.50
2018-12-13T16:16:09.246Z,21.87
2018-12-13T16:18:38.285Z,25.47
2018-12-13T16:21:07.454Z,20.87
2018-12-13T16:23:36.505Z,21.03
2018-12-13T16:26:05.536Z,23.53
2018-12-13T16:28:34.548Z,21.87
2018-12-13T16:31:03.618Z,23.40
2018-12-13T16:33:33.350Z,23.67
2018-12-13T16:36:02.959Z,23.13
2018-12-13T16:38:32.638Z,19.47
2018-12-13T16:41:01.661Z,24.13
2018-12-13T16:43:31.442Z,25.67
2018-12-13T16:46:00.567Z,24.20
2018-12-13T16:48:29.592Z,22.10
2018-12-13T16:50:58.853Z,19.40
2018-12-13T16:53:27.896Z,24.20
2018-12-13T16:55:58.459Z,21.13
2018-12-13T16:58:27.495Z,25.10
2018-12-13T17:00:56.513Z,27.20
2018-12-13T17:03:37.378Z,33.60
2018-12-13T17:06:06.771Z,26.53
2018-12-13T17:08:35.801Z,25.73
2018-12-13T17:11:05.888Z,27.93
2018-12-13T17:13:35.967Z,24.00
2018-12-13T17:16:05.238Z,23.80
2018-12-13T17:18:34.260Z,23.40
2018-12-13T17:21:03.277Z,26.23
2018-12-13T17:23:32.295Z,23.40
2018-12-13T17:26:01.308Z,25.30
2018-12-13T17:28:30.419Z,23.70
2018-12-13T17:30:59.454Z,22.30
2018-12-13T17:33:29.201Z,24.67
2018-12-13T17:35:58.274Z,26.17
2018-12-13T17:38:27.445Z,22.90
2018-12-13T17:40:57.514Z,26.07
2018-12-13T17:43:29.002Z,27.10
2018-12-13T17:45:58.496Z,23.83
2018-12-13T17:48:28.060Z,27.07
2018-12-13T17:50:57.133Z,31.10
2018-12-13T17:53:26.387Z,29.20
2018-12-13T17:55:55.408Z,24.87
2018-12-13T17:58:24.435Z,27.50
2018-12-13T18:00:53.454Z,27.63
2018-12-13T18:03:22.613Z,26.10
2018-12-13T18:05:51.706Z,24.17
2018-12-13T18:08:20.747Z,33.53
2018-12-13T18:10:50.409Z,27.07
2018-12-13T18:13:19.435Z,27.20
2018-12-13T18:15:49.755Z,30.10
2018-12-13T18:18:18.849Z,34.00
2018-12-13T18:20:47.857Z,35.00
2018-12-13T18:23:16.899Z,30.57
2018-12-13T18:25:45.995Z,26.23
2018-12-13T18:28:16.069Z,32.47
2018-12-13T18:30:45.139Z,30.20
2018-12-13T18:33:14.371Z,27.50
2018-12-13T18:35:44.185Z,30.20
2018-12-13T18:38:13.242Z,27.60
2018-12-13T18:40:42.888Z,29.17
2018-12-13T18:43:12.984Z,23.70
2018-12-13T18:45:42.610Z,33.60
2018-12-13T18:48:13.203Z,24.90
2018-12-13T18:50:42.437Z,29.00
2018-12-13T18:53:12.144Z,27.37
2018-12-13T18:55:42.447Z,33.00
2018-12-13T18:58:11.471Z,28.23
2018-12-13T19:00:40.487Z,26.77
2018-12-13T19:03:09.524Z,29.83
2018-12-13T19:05:38.548Z,25.40
2018-12-13T19:08:07.743Z,24.83
2018-12-13T19:10:41.863Z,28.53
2018-12-13T19:13:07.884Z,25.83
2018-12-13T19:15:36.926Z,26.60
2018-12-13T19:18:05.978Z,34.60
2018-12-13T19:20:35.041Z,28.70
2018-12-13T19:23:04.133Z,26.60
2018-12-13T19:25:33.359Z,31.70
2018-12-13T19:28:02.391Z,26.63
2018-12-13T19:30:31.518Z,26.80
2018-12-13T19:33:00.587Z,27.70
2018-12-13T19:35:29.589Z,24.93
2018-12-13T19:37:58.729Z,27.40
2018-12-13T19:40:27.895Z,30.23
2018-12-13T19:42:56.926Z,24.47
2018-12-13T19:45:26.018Z,29.33
2018-12-13T19:47:55.102Z,33.13
2018-12-13T19:50:24.132Z,26.80
2018-12-13T19:52:53.294Z,30.77
2018-12-13T19:55:22.275Z,25.57
2018-12-13T19:57:51.348Z,25.93
2018-12-13T20:00:20.390Z,28.07
2018-12-13T20:02:49.528Z,29.93
2018-12-13T20:05:19.182Z,27.23
2018-12-13T20:07:48.258Z,29.63
2018-12-13T20:10:17.286Z,26.47
2018-12-13T20:12:46.308Z,31.43
2018-12-13T20:15:15.714Z,29.07
2018-12-13T20:17:44.775Z,26.80
2018-12-13T20:20:13.795Z,25.30
2018-12-13T20:22:42.812Z,27.23
2018-12-13T20:25:11.857Z,21.67
2018-12-13T20:27:40.946Z,27.07
2018-12-13T20:30:10.251Z,18.63
2018-12-13T20:32:39.334Z,25.87
2018-12-13T20:35:08.439Z,22.87
2018-12-13T20:37:37.439Z,25.50
2018-12-13T20:40:06.762Z,25.37
2018-12-13T20:42:35.774Z,24.93
2018-12-13T20:45:05.801Z,26.30
2018-12-13T20:47:34.817Z,21.17
2018-12-13T20:50:04.298Z,26.40
2018-12-13T20:52:33.365Z,20.80
2018-12-13T20:55:02.773Z,23.33
2018-12-13T20:57:32.011Z,26.10
2018-12-13T21:00:01.067Z,23.53
2018-12-13T21:02:30.111Z,24.47
2018-12-13T21:04:59.175Z,24.60
2018-12-13T21:07:35.013Z,24.63
2018-12-13T21:10:07.218Z,20.93
2018-12-13T21:12:36.330Z,25.00
2018-12-13T21:15:06.848Z,24.83
2018-12-13T21:17:37.258Z,22.80
2018-12-13T21:20:06.884Z,20.83
2018-12-13T21:22:36.027Z,23.03
2018-12-13T21:25:05.463Z,21.43
2018-12-13T21:27:34.502Z,22.53
2018-12-13T21:30:03.861Z,25.50
2018-12-13T21:32:32.907Z,23.70
2018-12-13T21:35:02.127Z,25.37
2018-12-13T21:37:31.180Z,24.77
2018-12-13T21:40:00.260Z,25.77
2018-12-13T21:42:29.718Z,27.43
2018-12-13T21:44:58.754Z,22.50
2018-12-13T21:47:27.874Z,22.20
2018-12-13T21:49:56.902Z,24.20
2018-12-13T21:52:25.939Z,23.77
2018-12-13T21:54:55.050Z,27.30
2018-12-13T21:57:24.272Z,25.77
2018-12-13T21:59:54.419Z,23.23
2018-12-13T22:02:23.627Z,24.47
2018-12-13T22:04:52.710Z,28.80
2018-12-13T22:07:21.760Z,33.23
2018-12-13T22:09:50.819Z,26.63
2018-12-13T22:12:19.875Z,29.97
2018-12-13T22:14:48.926Z,27.53
2018-12-13T22:17:18.035Z,24.70
2018-12-13T22:19:47.122Z,26.63
2018-12-13T22:22:16.520Z,27.23
2018-12-13T22:24:45.496Z,28.53
2018-12-13T22:27:14.545Z,35.57
2018-12-13T22:29:43.566Z,30.50
2018-12-13T22:32:13.553Z,29.20
2018-12-13T22:34:43.291Z,30.30
2018-12-13T22:37:12.745Z,27.93
2018-12-13T22:39:41.787Z,31.83
2018-12-13T22:42:10.843Z,30.17
2018-12-13T22:44:39.888Z,30.20
2018-12-13T22:47:08.911Z,29.70
2018-12-13T22:49:37.953Z,34.50
2018-12-13T22:52:06.971Z,33.87
2018-12-13T22:54:36.067Z,29.33
2018-12-13T22:57:05.102Z,30.20
2018-12-13T22:59:34.123Z,28.67
2018-12-13T23:02:03.188Z,33.73
2018-12-13T23:04:32.211Z,30.60
2018-12-13T23:07:01.274Z,32.87
2018-12-13T23:09:30.291Z,31.23
2018-12-13T23:11:59.356Z,31.30
2018-12-13T23:14:30.514Z,29.57
2018-12-13T23:16:59.706Z,33.40
2018-12-13T23:19:28.934Z,34.90
2018-12-13T23:21:58.010Z,33.37
2018-12-13T23:24:27.066Z,34.80
2018-12-13T23:26:56.237Z,45.93
2018-12-13T23:29:27.540Z,40.70
2018-12-13T23:31:57.282Z,47.07
2018-12-13T23:34:26.426Z,53.20
2018-12-13T23:36:55.519Z,46.33
2018-12-13T23:39:24.613Z,48.10
2018-12-13T23:41:53.672Z,46.53
2018-12-13T23:44:23.774Z,50.57
2018-12-13T23:46:52.803Z,46.97
2018-12-13T23:49:21.826Z,42.53
2018-12-13T23:51:50.851Z,44.27
2018-12-13T23:54:19.926Z,42.07
2018-12-13T23:56:48.963Z,42.50
2018-12-13T23:59:18.020Z,43.53
